createdAt,value
2023-09-09T00:01:39.525Z,18.26
2023-09-09T00:06:41.891Z,18.24
2023-09-09T00:11:43.756Z,18.22
2023-09-09T00:16:45.576Z,18.18
2023-09-09T00:21:47.510Z,18.14
2023-09-09T00:26:49.202Z,18.10
2023-09-09T00:31:50.925Z,18.05
2023-09-09T00:36:52.888Z,18.01
2023-09-09T00:41:54.752Z,18.00
2023-09-09T00:46:56.964Z,17.97
2023-09-09T00:51:58.819Z,17.95
2023-09-09T00:57:00.577Z,17.94
2023-09-09T01:02:02.519Z,17.91
2023-09-09T01:07:05.574Z,17.87
2023-09-09T01:12:08.649Z,17.83
2023-09-09T01:17:10.498Z,17.77
2023-09-09T01:22:19.476Z,17.72
2023-09-09T01:27:21.175Z,17.69
2023-09-09T01:32:22.877Z,17.68
2023-09-09T01:37:24.884Z,17.66
2023-09-09T01:42:26.598Z,17.64
2023-09-09T01:47:28.551Z,17.60
2023-09-09T01:52:30.505Z,17.57
2023-09-09T01:57:32.404Z,17.54
2023-09-09T02:02:34.956Z,17.49
2023-09-09T02:07:36.987Z,17.44
2023-09-09T02:12:38.779Z,17.36
2023-09-09T02:17:40.680Z,17.31
2023-09-09T02:22:42.450Z,17.26
2023-09-09T02:27:44.211Z,17.22
2023-09-09T02:32:47.110Z,17.18
2023-09-09T02:37:48.991Z,17.13
2023-09-09T02:42:50.857Z,17.08
2023-09-09T02:47:54.929Z,17.05
2023-09-09T02:52:56.867Z,17.00
2023-09-09T02:57:58.739Z,16.93
2023-09-09T03:03:00.775Z,16.88
2023-09-09T03:08:04.086Z,16.84
2023-09-09T03:13:05.909Z,16.79
2023-09-09T03:18:07.748Z,16.72
2023-09-09T03:23:09.662Z,16.67
2023-09-09T03:28:11.364Z,16.64
2023-09-09T03:33:13.296Z,16.59
2023-09-09T03:38:15.241Z,16.55
2023-09-09T03:43:17.280Z,16.51
2023-09-09T03:48:19.159Z,16.48
2023-09-09T03:53:21.077Z,16.43
2023-09-09T03:58:23.124Z,16.37
2023-09-09T04:03:25.019Z,16.33
2023-09-09T04:08:27.044Z,16.27
2023-09-09T04:13:28.864Z,16.27
2023-09-09T04:18:45.126Z,16.29
2023-09-09T04:23:48.592Z,16.30
2023-09-09T04:28:50.674Z,16.29
2023-09-09T04:33:52.604Z,16.28
2023-09-09T04:38:54.564Z,16.29
2023-09-09T04:43:56.332Z,16.28
2023-09-09T04:48:58.266Z,16.26
2023-09-09T04:54:00.165Z,16.31
2023-09-09T04:59:02.076Z,16.38
2023-09-09T05:04:04.199Z,16.54
2023-09-09T05:09:06.210Z,16.74
2023-09-09T05:14:08.089Z,17.01
2023-09-09T05:19:09.834Z,17.31
2023-09-09T05:24:11.848Z,17.64
2023-09-09T05:29:13.543Z,17.92
2023-09-09T05:34:15.235Z,18.17
2023-09-09T05:39:17.298Z,18.38
2023-09-09T05:44:19.077Z,18.69
2023-09-09T05:49:32.112Z,18.98
2023-09-09T05:54:38.219Z,19.27
2023-09-09T05:59:40.119Z,19.50
2023-09-09T06:04:41.842Z,19.80
2023-09-09T06:09:43.648Z,20.07
2023-09-09T06:14:45.480Z,20.35
2023-09-09T06:19:47.249Z,20.63
2023-09-09T06:24:49.018Z,20.87
2023-09-09T06:29:51.011Z,21.14
2023-09-09T06:34:52.662Z,21.38
2023-09-09T06:39:54.562Z,21.61
2023-09-09T06:44:56.438Z,21.87
2023-09-09T06:49:58.330Z,22.10
2023-09-09T06:55:00.224Z,22.37
2023-09-09T07:00:02.382Z,22.64
2023-09-09T07:05:04.808Z,22.86
2023-09-09T07:10:07.571Z,23.08
2023-09-09T07:15:10.393Z,23.28
2023-09-09T07:20:12.164Z,23.55
2023-09-09T07:25:13.965Z,23.82
2023-09-09T07:30:16.241Z,24.04
2023-09-09T07:35:18.392Z,24.30
2023-09-09T07:40:20.314Z,24.50
2023-09-09T07:45:23.369Z,24.68
2023-09-09T07:50:25.725Z,24.85
2023-09-09T07:55:28.330Z,24.99
2023-09-09T08:00:31.685Z,25.14
2023-09-09T08:05:33.540Z,25.41
2023-09-09T08:10:35.475Z,25.61
2023-09-09T08:15:40.661Z,25.85
2023-09-09T08:20:43.187Z,26.00
2023-09-09T08:25:45.385Z,26.17
2023-09-09T08:30:47.347Z,26.36
2023-09-09T08:35:50.768Z,26.57
2023-09-09T08:41:06.602Z,26.79
2023-09-09T08:46:15.809Z,26.97
2023-09-09T08:51:19.170Z,27.20
2023-09-09T08:56:21.212Z,27.45
2023-09-09T09:01:23.166Z,27.74
2023-09-09T09:06:25.109Z,27.95
2023-09-09T09:11:26.775Z,28.13
2023-09-09T09:16:28.434Z,28.30
2023-09-09T09:21:34.194Z,28.58
2023-09-09T09:26:35.875Z,28.94
2023-09-09T09:31:37.579Z,29.15
2023-09-09T09:36:39.448Z,29.28
2023-09-09T09:41:41.402Z,29.36
2023-09-09T09:46:43.414Z,29.53
2023-09-09T09:51:45.245Z,29.79
2023-09-09T09:56:47.142Z,30.12
2023-09-09T10:01:49.410Z,30.43
2023-09-09T10:06:51.333Z,30.72
2023-09-09T10:12:01.260Z,31.12
2023-09-09T10:17:05.828Z,31.50
2023-09-09T10:22:07.726Z,31.80
2023-09-09T10:27:09.577Z,32.08
2023-09-09T10:32:11.454Z,32.36
2023-09-09T10:37:13.342Z,32.48
2023-09-09T10:42:16.539Z,32.56
2023-09-09T10:47:18.228Z,32.80
2023-09-09T10:52:33.115Z,33.24
2023-09-09T10:57:35.079Z,33.64
2023-09-09T11:02:49.266Z,34.14
2023-09-09T11:07:51.062Z,34.93
2023-09-09T11:12:58.288Z,35.65
2023-09-09T11:18:00.369Z,36.27
2023-09-09T11:23:02.172Z,36.90
2023-09-09T11:28:04.486Z,37.43
2023-09-09T11:33:06.384Z,37.76
2023-09-09T11:38:08.431Z,38.22
2023-09-09T11:43:10.414Z,38.59
2023-09-09T11:48:12.305Z,38.90
2023-09-09T11:53:14.305Z,39.06
2023-09-09T11:58:16.312Z,39.22
2023-09-09T12:03:22.729Z,39.57
2023-09-09T12:08:26.262Z,40.10
2023-09-09T12:13:28.678Z,40.55
2023-09-09T12:18:30.760Z,40.82
2023-09-09T12:23:33.340Z,41.14
2023-09-09T12:28:35.341Z,41.53
2023-09-09T12:33:43.751Z,41.87
2023-09-09T12:38:50.117Z,42.02
2023-09-09T12:43:52.667Z,42.26
2023-09-09T12:48:58.093Z,42.28
2023-09-09T12:54:00.221Z,42.50
2023-09-09T12:59:02.139Z,42.71
2023-09-09T13:04:04.479Z,42.96
2023-09-09T13:09:06.437Z,43.12
2023-09-09T13:19:15.110Z,42.04
2023-09-09T13:24:16.877Z,41.83
2023-09-09T13:29:18.863Z,41.52
2023-09-09T13:34:20.780Z,40.67
2023-09-09T13:39:22.996Z,40.63
2023-09-09T13:44:24.777Z,40.10
2023-09-09T13:49:26.592Z,38.37
2023-09-09T13:54:28.520Z,36.74
2023-09-09T13:59:31.208Z,35.32
2023-09-09T14:04:33.032Z,34.14
2023-09-09T14:09:34.880Z,33.26
2023-09-09T14:14:36.577Z,32.53
2023-09-09T14:19:38.357Z,31.88
2023-09-09T14:24:40.326Z,31.36
2023-09-09T14:29:42.112Z,31.00
2023-09-09T14:34:44.074Z,30.68
2023-09-09T14:39:45.745Z,30.41
2023-09-09T14:44:48.850Z,30.17
2023-09-09T14:49:50.628Z,29.99
2023-09-09T14:54:52.444Z,29.83
2023-09-09T14:59:54.231Z,29.69
2023-09-09T15:04:55.958Z,29.55
2023-09-09T15:09:57.861Z,29.41
2023-09-09T15:14:59.601Z,29.29
2023-09-09T15:20:01.305Z,29.18
2023-09-09T15:25:03.073Z,29.09
2023-09-09T15:30:05.464Z,29.01
2023-09-09T15:35:08.144Z,28.91
2023-09-09T15:40:10.974Z,28.80
2023-09-09T15:45:12.919Z,28.73
2023-09-09T15:50:14.771Z,28.61
2023-09-09T15:55:16.636Z,28.52
2023-09-09T16:00:18.684Z,28.45
2023-09-09T16:05:20.451Z,28.35
2023-09-09T16:10:22.457Z,28.26
2023-09-09T16:15:24.509Z,28.17
2023-09-09T16:20:26.308Z,28.07
2023-09-09T16:25:28.176Z,27.96
2023-09-09T16:30:29.932Z,27.84
2023-09-09T16:35:31.710Z,27.73
2023-09-09T16:40:33.435Z,27.63
2023-09-09T16:45:35.416Z,27.50
2023-09-09T16:50:37.384Z,27.40
2023-09-09T16:55:39.298Z,27.30
2023-09-09T17:00:41.205Z,27.20
2023-09-09T17:05:46.549Z,27.11
2023-09-09T17:10:51.616Z,26.99
2023-09-09T17:15:53.729Z,26.87
2023-09-09T17:20:55.684Z,26.79
2023-09-09T17:26:01.001Z,26.70
2023-09-09T17:31:03.064Z,26.60
2023-09-09T17:36:05.109Z,26.52
2023-09-09T17:41:07.192Z,26.43
2023-09-09T17:46:08.956Z,26.36
2023-09-09T17:51:10.752Z,26.29
2023-09-09T17:56:12.499Z,26.23
2023-09-09T18:01:14.357Z,26.16
2023-09-09T18:06:17.277Z,26.09
2023-09-09T18:11:19.954Z,25.99
2023-09-09T18:16:21.838Z,25.88
2023-09-09T18:21:26.643Z,25.80
2023-09-09T18:26:29.828Z,25.73
2023-09-09T18:31:31.635Z,25.65
2023-09-09T18:36:33.616Z,25.62
2023-09-09T18:41:35.378Z,25.64
2023-09-09T18:46:37.309Z,25.60
2023-09-09T18:51:39.339Z,25.53
2023-09-09T18:56:41.302Z,25.48
2023-09-09T19:01:43.409Z,25.44
2023-09-09T19:06:45.291Z,25.38
2023-09-09T19:11:47.450Z,25.29
2023-09-09T19:16:49.320Z,25.22
2023-09-09T19:21:51.210Z,25.14
2023-09-09T19:26:53.100Z,25.04
2023-09-09T19:31:56.976Z,24.97
2023-09-09T19:36:58.692Z,24.90
2023-09-09T19:42:05.422Z,24.86
2023-09-09T19:47:07.261Z,24.78
2023-09-09T19:52:09.127Z,24.69
2023-09-09T19:57:10.908Z,24.61
2023-09-09T20:02:12.811Z,24.53
2023-09-09T20:07:14.866Z,24.45
2023-09-09T20:12:16.872Z,24.38
2023-09-09T20:17:18.619Z,24.29
2023-09-09T20:22:20.500Z,24.21
2023-09-09T20:27:22.485Z,24.16
2023-09-09T20:32:24.259Z,24.09
2023-09-09T20:37:26.297Z,24.02
2023-09-09T20:42:28.234Z,23.95
2023-09-09T20:47:30.361Z,23.88
2023-09-09T20:52:32.299Z,23.79
2023-09-09T20:57:34.081Z,23.67
2023-09-09T21:02:35.877Z,23.55
2023-09-09T21:07:37.771Z,23.46
2023-09-09T21:12:43.386Z,23.38
2023-09-09T21:17:45.473Z,23.29
2023-09-09T21:22:47.608Z,23.21
2023-09-09T21:27:51.737Z,23.11
2023-09-09T21:32:53.793Z,23.00
2023-09-09T21:37:55.707Z,22.89
2023-09-09T21:42:57.520Z,22.81
2023-09-09T21:47:59.453Z,22.72
2023-09-09T21:53:01.519Z,22.64
2023-09-09T21:58:03.586Z,22.58
2023-09-09T22:03:05.744Z,22.52
2023-09-09T22:08:08.007Z,22.48
2023-09-09T22:13:09.917Z,22.42
2023-09-09T22:18:11.773Z,22.34
2023-09-09T22:23:13.772Z,22.25
2023-09-09T22:28:15.425Z,22.18
2023-09-09T22:33:17.089Z,22.14
2023-09-09T22:38:18.894Z,22.12
2023-09-09T22:43:20.664Z,22.09
2023-09-09T22:48:22.457Z,22.06
2023-09-09T22:53:24.327Z,22.03
2023-09-09T22:58:26.098Z,22.01
2023-09-09T23:03:27.950Z,21.98
2023-09-09T23:08:30.283Z,21.96
2023-09-09T23:13:32.453Z,21.90
2023-09-09T23:18:34.642Z,21.84
2023-09-09T23:23:36.720Z,21.78
2023-09-09T23:28:38.758Z,21.71
2023-09-09T23:33:40.733Z,21.64
2023-09-09T23:38:42.455Z,21.60
2023-09-09T23:43:44.410Z,21.57
2023-09-09T23:48:46.215Z,21.57
2023-09-09T23:53:48.198Z,21.58
2023-09-09T23:58:50.286Z,21.60
